createdAt,value
2018-05-17T00:00:17.936Z,82.12
2018-05-17T00:02:49.323Z,83.35
2018-05-17T00:05:20.588Z,81.15
2018-05-17T00:07:51.868Z,92.43
2018-05-17T00:10:23.353Z,86.65
2018-05-17T00:12:54.840Z,87.70
2018-05-17T00:15:26.263Z,82.65
2018-05-17T00:18:03.487Z,77.82
2018-05-17T00:20:35.133Z,75.22
2018-05-17T00:23:07.178Z,82.57
2018-05-17T00:25:39.576Z,82.35
2018-05-17T00:31:14.480Z,78.28
2018-05-17T00:33:45.950Z,77.15
2018-05-17T00:36:17.408Z,79.95
2018-05-17T00:38:48.754Z,81.28
2018-05-17T00:41:20.105Z,81.20
2018-05-17T00:43:51.727Z,77.97
2018-05-17T00:46:23.395Z,82.20
2018-05-17T00:48:54.776Z,84.40
2018-05-17T00:51:26.111Z,80.85
2018-05-17T00:53:57.576Z,80.78
2018-05-17T00:56:28.787Z,84.90
2018-05-17T00:59:00.593Z,86.28
2018-05-17T01:01:31.899Z,90.85
2018-05-17T01:04:03.255Z,92.95
2018-05-17T01:06:34.629Z,90.10
2018-05-17T01:09:06.568Z,85.68
2018-05-17T01:11:38.008Z,77.80
2018-05-17T01:14:09.494Z,82.45
2018-05-17T01:16:41.114Z,92.95
2018-05-17T01:19:13.114Z,88.07
2018-05-17T01:21:44.444Z,83.10
2018-05-17T01:24:16.298Z,89.25
2018-05-17T01:26:47.646Z,85.18
2018-05-17T01:29:19.295Z,87.40
2018-05-17T01:31:50.531Z,89.07
2018-05-17T01:34:22.087Z,87.53
2018-05-17T01:37:01.869Z,80.62
2018-05-17T01:39:45.097Z,80.82
2018-05-17T01:42:16.412Z,78.20
2018-05-17T01:44:47.674Z,86.12
2018-05-17T01:47:19.112Z,88.70
2018-05-17T01:49:50.595Z,86.57
2018-05-17T01:52:21.905Z,80.43
2018-05-17T01:54:53.501Z,85.28
2018-05-17T01:57:24.908Z,86.18
2018-05-17T01:59:56.613Z,84.68
2018-05-17T02:02:28.306Z,84.00
2018-05-17T02:04:59.679Z,84.70
2018-05-17T02:07:31.044Z,78.97
2018-05-17T02:10:02.478Z,79.22
2018-05-17T02:12:33.941Z,82.80
2018-05-17T02:15:05.615Z,87.15
2018-05-17T02:17:37.027Z,86.50
2018-05-17T02:20:08.287Z,90.60
2018-05-17T02:22:39.635Z,82.05
2018-05-17T02:25:11.007Z,86.90
2018-05-17T02:27:42.439Z,96.32
2018-05-17T02:30:14.191Z,97.03
2018-05-17T02:35:41.771Z,89.43
2018-05-17T02:38:14.391Z,88.97
2018-05-17T02:41:03.539Z,83.10
2018-05-17T02:43:34.863Z,84.72
2018-05-17T02:46:06.337Z,80.75
2018-05-17T02:48:37.658Z,80.45
2018-05-17T02:51:09.300Z,90.43
2018-05-17T02:53:40.652Z,83.65
2018-05-17T02:56:12.439Z,87.62
2018-05-17T02:58:43.764Z,87.45
2018-05-17T03:01:15.519Z,102.87
2018-05-17T03:03:46.870Z,112.15
2018-05-17T03:06:18.232Z,102.60
2018-05-17T03:08:55.641Z,97.53
2018-05-17T03:11:27.068Z,96.28
2018-05-17T03:13:58.071Z,94.75
2018-05-17T03:16:29.471Z,86.03
2018-05-17T03:19:00.795Z,88.57
2018-05-17T03:21:49.792Z,83.40
2018-05-17T03:24:21.955Z,102.22
2018-05-17T03:26:53.308Z,100.03
2018-05-17T03:29:24.740Z,96.82
2018-05-17T03:31:56.083Z,92.95
2018-05-17T03:34:27.542Z,93.57
2018-05-17T03:36:58.598Z,92.95
2018-05-17T03:39:29.908Z,98.22
2018-05-17T03:42:05.672Z,98.30
2018-05-17T03:44:37.047Z,99.13
2018-05-17T03:47:08.388Z,151.65
2018-05-17T03:49:45.238Z,121.68
2018-05-17T03:52:16.663Z,95.28
2018-05-17T03:54:48.147Z,100.15
2018-05-17T03:57:19.728Z,99.55
2018-05-17T03:59:51.336Z,98.60
2018-05-17T04:02:34.921Z,97.03
2018-05-17T04:05:17.960Z,101.50
2018-05-17T04:07:57.614Z,95.22
2018-05-17T04:10:29.960Z,98.78
2018-05-17T04:13:01.745Z,97.30
2018-05-17T04:15:34.843Z,106.85
2018-05-17T04:18:06.679Z,100.15
2018-05-17T04:20:40.540Z,106.30
2018-05-17T04:23:13.024Z,93.07
2018-05-17T04:25:44.463Z,98.72
2018-05-17T04:28:15.727Z,98.50
2018-05-17T04:30:47.193Z,99.32
2018-05-17T04:33:18.833Z,105.40
2018-05-17T04:35:50.272Z,104.15
2018-05-17T04:38:21.738Z,95.07
2018-05-17T04:40:53.176Z,102.38
2018-05-17T04:43:25.043Z,97.10
2018-05-17T04:45:56.388Z,96.30
2018-05-17T04:48:28.006Z,99.15
2018-05-17T04:50:58.984Z,102.85
2018-05-17T04:53:41.925Z,101.65
2018-05-17T04:56:13.318Z,99.30
2018-05-17T04:58:45.025Z,98.30
2018-05-17T05:01:16.522Z,102.87
2018-05-17T05:03:48.240Z,95.00
2018-05-17T05:06:19.966Z,100.65
2018-05-17T05:08:52.005Z,98.22
2018-05-17T05:11:23.603Z,97.35
2018-05-17T05:13:55.169Z,96.93
2018-05-17T05:16:26.593Z,96.87
2018-05-17T05:18:58.146Z,96.45
2018-05-17T05:21:29.606Z,95.60
2018-05-17T05:24:00.958Z,99.13
2018-05-17T05:26:31.980Z,97.50
2018-05-17T05:29:03.051Z,89.97
2018-05-17T05:31:34.187Z,90.18
2018-05-17T05:34:05.959Z,99.15
2018-05-17T05:36:37.000Z,101.50
2018-05-17T05:39:08.200Z,90.05
2018-05-17T05:41:39.478Z,92.88
2018-05-17T05:44:11.230Z,94.47
2018-05-17T05:46:42.563Z,90.47
2018-05-17T05:49:28.552Z,97.20
2018-05-17T05:51:59.810Z,93.15
2018-05-17T05:54:32.360Z,89.55
2018-05-17T05:57:12.322Z,91.50
2018-05-17T05:59:43.791Z,104.03
2018-05-17T06:02:14.819Z,95.12
2018-05-17T06:04:46.520Z,97.55
2018-05-17T06:07:17.840Z,92.95
2018-05-17T06:09:49.087Z,99.35
2018-05-17T06:12:20.535Z,93.97
2018-05-17T06:14:51.895Z,96.60
2018-05-17T06:17:23.402Z,93.70
2018-05-17T06:19:57.057Z,92.05
2018-05-17T06:22:28.497Z,93.37
2018-05-17T06:25:02.220Z,110.12
2018-05-17T06:27:34.241Z,97.32
2018-05-17T06:30:05.744Z,93.60
2018-05-17T06:32:37.459Z,100.43
2018-05-17T06:35:10.129Z,93.00
2018-05-17T06:37:49.433Z,87.90
2018-05-17T06:40:20.727Z,92.20
2018-05-17T06:42:52.165Z,92.72
2018-05-17T06:45:23.823Z,97.55
2018-05-17T06:47:55.292Z,99.30
2018-05-17T06:50:28.574Z,97.22
2018-05-17T06:53:00.017Z,95.72
2018-05-17T06:55:32.343Z,92.05
2018-05-17T06:58:05.018Z,94.20
2018-05-17T07:03:32.684Z,81.93
2018-05-17T07:06:04.419Z,114.70
2018-05-17T07:08:44.697Z,108.30
2018-05-17T07:11:15.939Z,87.45
2018-05-17T07:13:47.354Z,93.47
2018-05-17T07:16:18.620Z,92.70
2018-05-17T07:18:49.956Z,87.97
2018-05-17T07:21:24.925Z,91.82
2018-05-17T07:23:56.270Z,89.10
2018-05-17T07:26:27.874Z,91.43
2018-05-17T07:28:58.932Z,92.65
2018-05-17T07:31:30.309Z,93.62
2018-05-17T07:34:04.111Z,93.95
2018-05-17T07:36:35.738Z,99.68
2018-05-17T07:39:08.032Z,100.55
2018-05-17T07:41:41.739Z,94.60
2018-05-17T07:44:13.175Z,101.62
2018-05-17T07:46:44.449Z,99.32
2018-05-17T07:49:15.858Z,95.32
2018-05-17T07:51:51.755Z,84.97
2018-05-17T07:54:23.063Z,90.87
2018-05-17T07:56:54.874Z,90.75
2018-05-17T07:59:26.277Z,101.47
2018-05-17T08:02:03.986Z,96.47
2018-05-17T08:04:35.327Z,97.28
2018-05-17T08:07:07.049Z,95.38
2018-05-17T08:09:38.534Z,101.05
2018-05-17T08:12:09.915Z,100.35
2018-05-17T08:14:41.283Z,91.87
2018-05-17T08:17:12.584Z,87.43
2018-05-17T08:19:43.588Z,90.75
2018-05-17T08:22:14.980Z,102.62
2018-05-17T08:24:45.978Z,97.68
2018-05-17T08:27:17.004Z,96.47
2018-05-17T08:29:48.299Z,99.22
2018-05-17T08:32:23.570Z,101.05
2018-05-17T08:34:54.625Z,104.00
2018-05-17T08:37:25.931Z,91.60
2018-05-17T08:39:56.951Z,93.18
2018-05-17T08:42:28.661Z,96.37
2018-05-17T08:45:00.004Z,95.47
2018-05-17T08:47:31.795Z,95.18
2018-05-17T08:50:04.148Z,92.57
2018-05-17T08:52:36.401Z,104.35
2018-05-17T08:55:11.515Z,104.05
2018-05-17T08:57:43.019Z,102.25
2018-05-17T09:00:14.420Z,99.65
2018-05-17T09:02:46.039Z,96.05
2018-05-17T09:05:19.780Z,90.70
2018-05-17T09:07:51.635Z,88.18
2018-05-17T09:10:25.988Z,91.70
2018-05-17T09:12:57.001Z,85.70
2018-05-17T09:15:28.375Z,94.80
2018-05-17T09:18:07.213Z,92.55
2018-05-17T09:20:38.932Z,99.43
2018-05-17T09:23:10.790Z,93.05
2018-05-17T09:25:42.147Z,93.25
2018-05-17T09:28:13.500Z,95.80
2018-05-17T09:30:44.835Z,99.20
2018-05-17T09:33:16.471Z,93.45
2018-05-17T09:35:47.536Z,94.82
2018-05-17T09:38:19.653Z,90.65
2018-05-17T09:40:51.044Z,95.12
2018-05-17T09:43:22.423Z,105.40
2018-05-17T09:45:53.740Z,95.43
2018-05-17T09:48:24.779Z,100.65
2018-05-17T09:50:56.158Z,97.60
2018-05-17T09:53:27.795Z,101.05
2018-05-17T09:55:59.152Z,102.30
2018-05-17T09:58:33.967Z,97.18
2018-05-17T10:01:05.451Z,97.55
2018-05-17T10:03:36.575Z,97.95
2018-05-17T10:06:07.630Z,91.40
2018-05-17T10:08:38.926Z,85.95
2018-05-17T10:11:09.970Z,93.75
2018-05-17T10:13:41.079Z,89.60
2018-05-17T10:16:12.523Z,89.65
2018-05-17T10:18:43.584Z,93.72
2018-05-17T10:21:14.806Z,83.70
2018-05-17T10:23:46.397Z,91.15
2018-05-17T10:26:17.980Z,86.75
2018-05-17T10:28:49.460Z,86.28
2018-05-17T10:31:20.913Z,96.57
2018-05-17T10:33:53.589Z,94.18
2018-05-17T10:36:25.179Z,99.20
2018-05-17T10:38:56.897Z,83.97
2018-05-17T10:41:28.276Z,84.05
2018-05-17T10:43:59.612Z,87.35
2018-05-17T10:46:31.018Z,92.78
2018-05-17T10:49:02.558Z,80.65
2018-05-17T10:51:34.091Z,84.28
2018-05-17T10:54:05.760Z,88.37
2018-05-17T10:56:37.762Z,90.82
2018-05-17T10:59:09.947Z,93.15
2018-05-17T11:01:41.277Z,91.93
2018-05-17T11:04:12.474Z,88.70
2018-05-17T11:06:43.827Z,91.12
2018-05-17T11:09:15.148Z,84.62
2018-05-17T11:11:46.574Z,86.87
2018-05-17T11:14:17.908Z,86.55
2018-05-17T11:16:49.346Z,89.30
2018-05-17T11:19:20.846Z,90.82
2018-05-17T11:21:52.159Z,93.20
2018-05-17T11:24:23.672Z,91.75
2018-05-17T11:26:55.055Z,84.30
2018-05-17T11:29:26.083Z,85.28
2018-05-17T11:31:57.482Z,84.25
2018-05-17T11:34:30.338Z,80.12
2018-05-17T11:37:01.419Z,85.60
2018-05-17T11:39:33.131Z,87.88
2018-05-17T11:42:04.591Z,97.82
2018-05-17T11:44:36.016Z,91.75
2018-05-17T11:47:07.052Z,83.78
2018-05-17T11:49:38.279Z,88.50
2018-05-17T11:52:14.707Z,87.60
2018-05-17T11:54:46.754Z,89.87
2018-05-17T11:57:18.302Z,93.87
2018-05-17T11:59:49.960Z,91.82
2018-05-17T12:02:21.299Z,90.85
2018-05-17T12:04:52.787Z,86.65
2018-05-17T12:07:28.027Z,83.85
2018-05-17T12:09:59.247Z,86.43
2018-05-17T12:12:30.699Z,89.15
2018-05-17T12:15:02.290Z,94.07
2018-05-17T12:17:34.982Z,91.47
2018-05-17T12:20:06.918Z,94.43
2018-05-17T12:22:43.119Z,97.72
2018-05-17T12:25:14.414Z,103.72
2018-05-17T12:27:45.655Z,99.68
2018-05-17T12:30:17.715Z,105.93
2018-05-17T12:32:49.071Z,94.28
2018-05-17T12:35:20.824Z,95.53
2018-05-17T12:37:54.953Z,90.70
2018-05-17T12:40:26.887Z,93.57
2018-05-17T12:42:58.023Z,92.12
2018-05-17T12:45:29.340Z,95.78
2018-05-17T12:48:00.334Z,88.90
2018-05-17T12:50:31.807Z,93.03
2018-05-17T12:53:03.720Z,91.47
2018-05-17T12:55:35.140Z,95.43
2018-05-17T12:58:06.396Z,93.32
2018-05-17T13:00:39.344Z,94.85
2018-05-17T13:03:11.747Z,100.00
2018-05-17T13:05:43.306Z,94.75
2018-05-17T13:08:14.904Z,96.45
2018-05-17T13:10:46.675Z,90.60
2018-05-17T13:13:18.007Z,87.65
2018-05-17T13:15:49.485Z,95.20
2018-05-17T13:18:20.942Z,96.07
2018-05-17T13:20:52.470Z,92.18
2018-05-17T13:23:24.214Z,95.07
2018-05-17T13:25:55.271Z,95.25
2018-05-17T13:28:26.291Z,96.93
2018-05-17T13:30:57.795Z,93.72
2018-05-17T13:33:28.786Z,95.22
2018-05-17T13:35:59.805Z,95.57
2018-05-17T13:38:30.838Z,96.15
2018-05-17T13:41:02.163Z,93.30
2018-05-17T13:43:33.180Z,97.88
2018-05-17T13:46:04.550Z,92.55
2018-05-17T13:48:35.861Z,100.82
2018-05-17T13:51:07.328Z,92.93
2018-05-17T13:53:38.653Z,95.90
2018-05-17T13:56:12.103Z,100.22
2018-05-17T13:58:44.328Z,95.68
2018-05-17T14:01:15.956Z,102.25
2018-05-17T14:03:47.220Z,96.55
2018-05-17T14:06:18.686Z,96.10
2018-05-17T14:08:50.026Z,89.18
2018-05-17T14:11:21.772Z,92.10
2018-05-17T14:14:06.582Z,90.40
2018-05-17T14:16:38.829Z,93.10
2018-05-17T14:19:10.275Z,97.85
2018-05-17T14:21:43.066Z,104.32
2018-05-17T14:24:14.412Z,95.78
2018-05-17T14:26:45.793Z,92.93
2018-05-17T14:29:18.461Z,91.12
2018-05-17T14:31:50.362Z,91.18
2018-05-17T14:34:21.839Z,88.78
2018-05-17T14:36:53.210Z,94.87
2018-05-17T14:39:24.650Z,95.70
2018-05-17T14:42:01.340Z,91.45
2018-05-17T14:44:32.891Z,86.82
2018-05-17T14:47:04.331Z,89.78
2018-05-17T14:52:37.047Z,90.20
2018-05-17T14:55:08.635Z,91.22
2018-05-17T14:57:46.284Z,89.55
2018-05-17T15:00:17.627Z,89.03
2018-05-17T15:02:48.959Z,87.90
2018-05-17T15:05:26.697Z,89.43
2018-05-17T15:07:58.363Z,89.50
2018-05-17T15:10:29.675Z,83.50
2018-05-17T15:13:03.551Z,88.93
2018-05-17T15:15:36.235Z,88.43
2018-05-17T15:18:08.153Z,90.68
2018-05-17T15:20:40.503Z,90.40
2018-05-17T15:23:12.742Z,92.00
2018-05-17T15:25:44.219Z,95.22
2018-05-17T15:28:22.256Z,93.07
2018-05-17T15:30:56.045Z,87.72
2018-05-17T15:33:30.517Z,90.20
2018-05-17T15:36:03.929Z,98.35
2018-05-17T15:38:38.036Z,97.93
2018-05-17T15:41:10.713Z,92.20
2018-05-17T15:43:42.603Z,93.72
2018-05-17T15:46:14.057Z,100.30
2018-05-17T15:48:45.523Z,91.63
2018-05-17T15:51:16.880Z,87.20
2018-05-17T15:53:57.854Z,84.65
2018-05-17T15:56:29.304Z,93.62
2018-05-17T15:59:01.385Z,90.82
2018-05-17T16:01:32.800Z,90.80
2018-05-17T16:04:04.426Z,91.95
2018-05-17T16:06:35.500Z,90.15
2018-05-17T16:09:07.348Z,93.07
2018-05-17T16:11:38.420Z,90.95
2018-05-17T16:14:09.842Z,94.25
2018-05-17T16:16:41.305Z,87.70
2018-05-17T16:19:12.671Z,91.40
2018-05-17T16:21:44.218Z,91.35
2018-05-17T16:24:15.585Z,88.25
2018-05-17T16:26:46.900Z,90.07
2018-05-17T16:29:18.781Z,90.25
2018-05-17T16:31:50.204Z,89.20
2018-05-17T16:34:24.036Z,89.18
2018-05-17T16:36:55.662Z,90.97
2018-05-17T16:39:27.940Z,82.35
2018-05-17T16:41:59.479Z,88.62
2018-05-17T16:44:31.863Z,87.15
2018-05-17T16:47:03.321Z,93.45
2018-05-17T16:49:34.355Z,90.97
2018-05-17T16:52:05.977Z,95.47
2018-05-17T16:54:42.752Z,89.90
2018-05-17T16:57:14.131Z,85.32
2018-05-17T16:59:45.518Z,89.95
2018-05-17T17:02:16.855Z,93.28
2018-05-17T17:04:48.621Z,88.85
2018-05-17T17:07:20.350Z,87.20
2018-05-17T17:09:52.179Z,87.90
2018-05-17T17:12:23.559Z,84.78
2018-05-17T17:15:08.246Z,87.75
2018-05-17T17:17:39.571Z,84.75
2018-05-17T17:20:10.919Z,83.85
2018-05-17T17:22:41.982Z,89.95
2018-05-17T17:25:13.416Z,82.25
2018-05-17T17:27:44.760Z,84.60
2018-05-17T17:30:18.406Z,85.43
2018-05-17T17:32:49.815Z,84.70
2018-05-17T17:35:33.711Z,83.80
2018-05-17T17:38:07.621Z,83.90
2018-05-17T17:40:46.109Z,85.87
2018-05-17T17:43:18.899Z,81.45
2018-05-17T17:45:51.052Z,87.55
2018-05-17T17:48:22.475Z,85.60
2018-05-17T17:50:54.131Z,91.40
2018-05-17T17:53:25.576Z,81.45
2018-05-17T17:55:57.059Z,85.07
2018-05-17T17:58:33.296Z,89.75
2018-05-17T18:01:04.911Z,83.40
2018-05-17T18:03:36.295Z,86.55
2018-05-17T18:06:08.197Z,83.00
2018-05-17T18:08:39.610Z,82.62
2018-05-17T18:11:19.276Z,81.15
2018-05-17T18:13:50.707Z,86.22
2018-05-17T18:16:22.423Z,84.35
2018-05-17T18:18:53.923Z,86.45
2018-05-17T18:21:25.207Z,82.32
2018-05-17T18:24:10.818Z,88.25
2018-05-17T18:26:41.909Z,82.70
2018-05-17T18:29:13.124Z,90.03
2018-05-17T18:31:45.126Z,81.63
2018-05-17T18:34:17.142Z,86.68
2018-05-17T18:36:48.285Z,86.03
2018-05-17T18:42:25.731Z,87.60
2018-05-17T18:44:58.002Z,84.07
2018-05-17T18:50:36.575Z,88.15
2018-05-17T18:53:09.175Z,85.45
2018-05-17T18:55:46.379Z,94.03
2018-05-17T18:58:18.190Z,120.90
2018-05-17T19:00:49.566Z,93.65
2018-05-17T19:03:20.968Z,93.82
2018-05-17T19:05:53.072Z,82.82
2018-05-17T19:08:24.589Z,90.18
2018-05-17T19:10:56.985Z,91.50
2018-05-17T19:13:28.650Z,78.82
2018-05-17T19:16:13.286Z,79.75
2018-05-17T19:18:46.923Z,85.72
2018-05-17T19:21:18.528Z,81.12
2018-05-17T19:23:49.887Z,84.95
2018-05-17T19:26:21.340Z,87.72
2018-05-17T19:28:52.817Z,86.68
2018-05-17T19:31:37.660Z,83.07
2018-05-17T19:34:09.107Z,88.15
2018-05-17T19:36:40.454Z,82.90
2018-05-17T19:39:12.251Z,87.93
2018-05-17T19:41:43.569Z,79.72
2018-05-17T19:44:15.379Z,78.40
2018-05-17T19:47:00.230Z,86.95
2018-05-17T19:49:32.479Z,82.43
2018-05-17T19:52:04.924Z,77.95
2018-05-17T19:54:36.267Z,74.97
2018-05-17T19:57:07.707Z,73.62
2018-05-17T19:59:39.186Z,78.62
2018-05-17T20:02:10.631Z,74.57
2018-05-17T20:04:42.287Z,81.03
2018-05-17T20:07:15.048Z,77.47
2018-05-17T20:09:46.928Z,83.72
2018-05-17T20:12:18.356Z,77.55
2018-05-17T20:14:49.815Z,83.18
2018-05-17T20:17:21.372Z,91.22
2018-05-17T20:19:53.011Z,78.43
2018-05-17T20:22:24.452Z,85.47
2018-05-17T20:24:55.811Z,78.90
2018-05-17T20:27:46.028Z,69.43
2018-05-17T20:30:18.468Z,76.78
2018-05-17T20:32:49.811Z,76.68
2018-05-17T20:35:33.176Z,79.80
2018-05-17T20:38:06.483Z,75.43
2018-05-17T20:40:38.860Z,75.30
2018-05-17T20:43:14.869Z,75.85
2018-05-17T20:45:51.391Z,154.32
2018-05-17T20:48:24.575Z,88.00
2018-05-17T20:50:57.191Z,73.82
2018-05-17T20:56:28.283Z,74.62
2018-05-17T20:58:59.672Z,71.53
2018-05-17T21:04:30.803Z,65.00
2018-05-17T21:07:02.251Z,68.95
2018-05-17T21:12:43.513Z,74.00
2018-05-17T21:15:15.097Z,76.93
2018-05-17T21:17:46.839Z,77.30
2018-05-17T21:20:20.880Z,72.82
2018-05-17T21:22:52.529Z,78.57
2018-05-17T21:25:23.948Z,74.70
2018-05-17T21:27:55.199Z,72.12
2018-05-17T21:30:26.427Z,67.12
2018-05-17T21:32:58.026Z,65.65
2018-05-17T21:35:29.084Z,70.78
2018-05-17T21:38:00.340Z,76.72
2018-05-17T21:40:31.943Z,76.32
2018-05-17T21:43:03.631Z,70.37
2018-05-17T21:45:35.711Z,72.70
2018-05-17T21:48:08.856Z,75.12
2018-05-17T21:50:39.890Z,72.93
2018-05-17T21:56:18.512Z,69.05
2018-05-17T21:58:49.708Z,69.60
2018-05-17T22:01:21.154Z,73.93
2018-05-17T22:03:52.660Z,76.60
2018-05-17T22:06:24.254Z,81.03
2018-05-17T22:08:55.775Z,74.35
2018-05-17T22:11:27.290Z,69.00
2018-05-17T22:13:58.746Z,68.45
2018-05-17T22:16:30.114Z,71.43
2018-05-17T22:19:07.058Z,77.62
2018-05-17T22:21:38.484Z,81.93
2018-05-17T22:24:10.039Z,74.80
2018-05-17T22:26:42.648Z,76.78
2018-05-17T22:29:17.657Z,78.80
2018-05-17T22:31:49.440Z,74.10
2018-05-17T22:34:20.481Z,71.60
2018-05-17T22:36:51.520Z,77.70
2018-05-17T22:39:22.863Z,72.62
2018-05-17T22:41:54.291Z,69.87
2018-05-17T22:44:47.588Z,77.07
2018-05-17T22:47:18.903Z,72.87
2018-05-17T22:49:50.155Z,74.82
2018-05-17T22:52:21.369Z,72.07
2018-05-17T22:54:52.656Z,69.62
2018-05-17T22:57:32.522Z,74.45
2018-05-17T23:03:00.072Z,73.07
2018-05-17T23:05:31.492Z,73.80
2018-05-17T23:08:02.867Z,76.50
2018-05-17T23:10:34.505Z,84.68
2018-05-17T23:13:05.871Z,76.55
2018-05-17T23:15:37.650Z,75.28
2018-05-17T23:18:09.203Z,79.68
2018-05-17T23:20:58.734Z,71.05
2018-05-17T23:23:30.112Z,86.10
2018-05-17T23:26:01.771Z,75.07
2018-05-17T23:28:42.361Z,76.12
2018-05-17T23:31:13.645Z,80.82
2018-05-17T23:33:45.041Z,81.32
2018-05-17T23:36:16.502Z,78.93
2018-05-17T23:38:47.926Z,81.05
2018-05-17T23:41:33.851Z,75.62
2018-05-17T23:44:05.288Z,75.87
2018-05-17T23:46:36.735Z,76.18
2018-05-17T23:49:08.546Z,79.97
2018-05-17T23:51:39.999Z,75.85
2018-05-17T23:54:11.380Z,80.25
2018-05-17T23:56:45.528Z,79.43
2018-05-17T23:59:17.255Z,76.62
